createdAt,value
2022-12-12T00:01:27.245Z,21.43
2022-12-12T00:03:55.887Z,21.67
2022-12-12T00:06:26.391Z,18.70
2022-12-12T00:08:55.031Z,18.70
2022-12-12T00:11:24.086Z,20.93
2022-12-12T00:13:52.914Z,20.27
2022-12-12T00:16:21.688Z,20.80
2022-12-12T00:18:49.975Z,21.37
2022-12-12T00:21:20.589Z,20.90
2022-12-12T00:23:50.197Z,21.33
2022-12-12T00:26:21.270Z,19.43
2022-12-12T00:28:49.536Z,21.03
2022-12-12T00:31:18.923Z,21.13
2022-12-12T00:33:50.057Z,21.53
2022-12-12T00:36:18.826Z,24.20
2022-12-12T00:38:47.222Z,20.80
2022-12-12T00:41:17.019Z,20.73
2022-12-12T00:43:45.210Z,20.57
2022-12-12T00:46:15.330Z,23.80
2022-12-12T00:48:43.702Z,21.00
2022-12-12T00:51:14.407Z,22.73
2022-12-12T00:53:42.615Z,20.93
2022-12-12T00:56:10.833Z,23.40
2022-12-12T00:58:40.464Z,23.03
2022-12-12T01:01:12.118Z,21.73
2022-12-12T01:03:42.071Z,26.40
2022-12-12T01:06:10.662Z,23.00
2022-12-12T01:08:39.543Z,26.30
2022-12-12T01:11:10.991Z,22.20
2022-12-12T01:13:41.822Z,24.37
2022-12-12T01:16:10.855Z,22.27
2022-12-12T01:18:40.504Z,26.20
2022-12-12T01:21:10.329Z,26.53
2022-12-12T01:23:38.899Z,23.43
2022-12-12T01:26:11.114Z,26.57
2022-12-12T01:28:40.779Z,24.10
2022-12-12T01:31:09.440Z,24.67
2022-12-12T01:33:38.184Z,21.53
2022-12-12T01:36:07.334Z,25.33
2022-12-12T01:38:35.560Z,27.60
2022-12-12T01:41:03.930Z,27.40
2022-12-12T01:43:32.242Z,22.00
2022-12-12T01:46:30.443Z,23.90
2022-12-12T01:49:02.349Z,27.00
2022-12-12T01:51:31.170Z,25.53
2022-12-12T01:54:04.867Z,23.27
2022-12-12T01:56:34.255Z,23.07
2022-12-12T01:59:04.902Z,25.63
2022-12-12T02:01:33.825Z,24.97
2022-12-12T02:04:04.150Z,23.33
2022-12-12T02:06:32.350Z,21.97
2022-12-12T02:09:05.685Z,24.63
2022-12-12T02:11:36.734Z,22.60
2022-12-12T02:14:05.212Z,24.13
2022-12-12T02:16:52.491Z,24.67
2022-12-12T02:20:08.103Z,21.43
2022-12-12T02:22:59.717Z,26.17
2022-12-12T02:26:02.047Z,23.13
2022-12-12T02:28:58.050Z,23.60
2022-12-12T02:31:32.912Z,25.30
2022-12-12T02:34:04.661Z,26.57
2022-12-12T02:36:41.348Z,23.50
2022-12-12T02:39:15.261Z,24.80
2022-12-12T02:41:47.683Z,23.97
2022-12-12T02:44:23.576Z,23.90
2022-12-12T02:47:02.563Z,26.07
2022-12-12T02:49:36.490Z,27.53
2022-12-12T02:52:05.628Z,21.93
2022-12-12T02:54:34.756Z,22.23
2022-12-12T02:57:03.951Z,22.10
2022-12-12T02:59:35.583Z,23.20
2022-12-12T03:02:35.604Z,24.10
2022-12-12T03:05:32.597Z,20.63
2022-12-12T03:08:11.071Z,22.33
2022-12-12T03:10:51.528Z,24.20
2022-12-12T03:13:31.352Z,25.17
2022-12-12T03:16:11.247Z,22.10
2022-12-12T03:18:49.048Z,20.97
2022-12-12T03:21:22.784Z,18.07
2022-12-12T03:23:55.567Z,20.40
2022-12-12T03:26:29.421Z,24.93
2022-12-12T03:29:05.711Z,21.60
2022-12-12T03:31:37.871Z,21.97
2022-12-12T03:34:11.818Z,21.03
2022-12-12T03:36:44.749Z,23.17
2022-12-12T03:39:16.391Z,23.03
2022-12-12T03:41:53.378Z,21.17
2022-12-12T03:44:26.397Z,23.47
2022-12-12T03:46:58.428Z,23.00
2022-12-12T03:49:34.624Z,23.10
2022-12-12T03:52:08.001Z,23.13
2022-12-12T03:54:42.652Z,24.00
2022-12-12T03:57:18.161Z,20.67
2022-12-12T03:59:50.337Z,23.33
2022-12-12T04:02:27.120Z,22.40
2022-12-12T04:05:05.157Z,22.73
2022-12-12T04:07:35.755Z,27.77
2022-12-12T04:10:33.607Z,25.67
2022-12-12T04:13:11.518Z,20.13
2022-12-12T04:16:00.798Z,25.47
2022-12-12T04:18:38.114Z,24.53
2022-12-12T04:21:44.978Z,19.93
2022-12-12T04:24:23.659Z,20.73
2022-12-12T04:27:01.423Z,20.47
2022-12-12T04:29:39.126Z,25.30
2022-12-12T04:32:16.513Z,22.30
2022-12-12T04:34:49.807Z,28.80
2022-12-12T04:37:23.541Z,23.10
2022-12-12T04:39:55.047Z,20.73
2022-12-12T04:42:27.531Z,25.77
2022-12-12T04:45:02.324Z,22.17
2022-12-12T04:47:32.639Z,22.17
2022-12-12T04:50:03.626Z,24.50
2022-12-12T04:52:35.348Z,23.10
2022-12-12T04:55:07.527Z,19.53
2022-12-12T04:57:40.789Z,19.63
2022-12-12T05:00:10.703Z,23.90
2022-12-12T05:02:45.520Z,20.63
2022-12-12T05:05:19.388Z,26.80
2022-12-12T05:07:54.103Z,23.90
2022-12-12T05:10:22.477Z,20.13
2022-12-12T05:12:52.023Z,23.77
2022-12-12T05:15:21.809Z,23.67
2022-12-12T05:17:53.521Z,26.03
2022-12-12T05:20:22.109Z,23.63
2022-12-12T05:22:51.656Z,20.97
2022-12-12T05:25:19.945Z,26.73
2022-12-12T05:27:48.154Z,22.33
2022-12-12T05:30:16.564Z,20.17
2022-12-12T05:32:44.754Z,21.20
2022-12-12T05:35:13.247Z,23.10
2022-12-12T05:37:43.502Z,19.50
2022-12-12T05:40:16.249Z,25.20
2022-12-12T05:42:44.465Z,28.43
2022-12-12T05:45:13.270Z,22.27
2022-12-12T05:47:41.684Z,22.87
2022-12-12T05:50:11.016Z,22.23
2022-12-12T05:52:39.372Z,25.87
2022-12-12T05:55:08.450Z,19.77
2022-12-12T05:57:38.013Z,25.23
2022-12-12T06:00:08.316Z,23.70
2022-12-12T06:02:36.600Z,19.33
2022-12-12T06:05:05.390Z,24.23
2022-12-12T06:07:33.622Z,21.00
2022-12-12T06:10:01.873Z,26.33
2022-12-12T06:12:30.084Z,25.33
2022-12-12T06:14:59.673Z,24.73
2022-12-12T06:17:32.939Z,29.33
2022-12-12T06:20:01.841Z,22.57
2022-12-12T06:22:30.097Z,22.50
2022-12-12T06:24:58.296Z,21.93
2022-12-12T06:27:26.480Z,23.77
2022-12-12T06:29:54.878Z,27.00
2022-12-12T06:32:24.464Z,24.97
2022-12-12T06:34:53.208Z,24.53
2022-12-12T06:37:21.760Z,23.77
2022-12-12T06:39:50.897Z,26.03
2022-12-12T06:42:19.111Z,22.73
2022-12-12T06:44:47.972Z,23.97
2022-12-12T06:47:16.191Z,26.27
2022-12-12T06:49:45.744Z,21.40
2022-12-12T06:52:13.973Z,25.37
2022-12-12T06:54:42.232Z,23.07
2022-12-12T06:57:10.471Z,28.53
2022-12-12T06:59:38.691Z,24.87
2022-12-12T07:02:07.122Z,25.90
2022-12-12T07:04:35.308Z,25.90
2022-12-12T07:07:05.049Z,25.30
2022-12-12T07:09:33.253Z,26.73
2022-12-12T07:12:01.504Z,23.37
2022-12-12T07:14:29.657Z,26.87
2022-12-12T07:16:58.085Z,26.43
2022-12-12T07:19:26.427Z,24.77
2022-12-12T07:21:54.678Z,28.50
2022-12-12T07:24:24.225Z,25.67
2022-12-12T07:26:52.590Z,24.40
2022-12-12T07:29:20.823Z,24.60
2022-12-12T07:31:49.097Z,21.70
2022-12-12T07:34:17.361Z,24.57
2022-12-12T07:36:45.570Z,29.87
2022-12-12T07:39:20.683Z,25.37
2022-12-12T07:41:50.744Z,26.00
2022-12-12T07:44:22.692Z,27.20
2022-12-12T07:46:53.944Z,24.87
2022-12-12T07:49:22.213Z,27.40
2022-12-12T07:51:50.417Z,27.33
2022-12-12T07:54:18.723Z,26.30
2022-12-12T07:56:47.162Z,28.13
2022-12-12T07:59:17.019Z,22.83
2022-12-12T08:01:45.858Z,28.43
2022-12-12T08:04:14.231Z,19.77
2022-12-12T08:06:42.441Z,23.93
2022-12-12T08:09:10.671Z,22.20
2022-12-12T08:11:45.934Z,27.47
2022-12-12T08:14:16.034Z,27.50
2022-12-12T08:16:44.258Z,28.50
2022-12-12T08:19:12.952Z,27.63
2022-12-12T08:21:41.183Z,25.53
2022-12-12T08:24:12.673Z,27.83
2022-12-12T08:26:40.918Z,28.17
2022-12-12T08:29:09.342Z,26.17
2022-12-12T08:31:39.375Z,29.90
2022-12-12T08:34:07.965Z,30.40
2022-12-12T08:36:37.012Z,32.53
2022-12-12T08:39:08.023Z,27.93
2022-12-12T08:41:38.150Z,28.03
2022-12-12T08:44:06.652Z,29.20
2022-12-12T08:46:35.385Z,22.57
2022-12-12T08:49:05.527Z,31.23
2022-12-12T08:51:34.286Z,33.20
2022-12-12T08:54:02.701Z,25.10
2022-12-12T08:56:30.957Z,31.03
2022-12-12T08:58:59.646Z,27.03
2022-12-12T09:01:28.973Z,26.40
2022-12-12T09:03:58.231Z,20.87
2022-12-12T09:06:28.175Z,27.63
2022-12-12T09:08:57.579Z,26.47
2022-12-12T09:11:25.893Z,26.63
2022-12-12T09:13:54.277Z,31.57
2022-12-12T09:16:23.507Z,30.27
2022-12-12T09:18:51.823Z,30.60
2022-12-12T09:21:20.795Z,35.43
2022-12-12T09:23:50.715Z,27.63
2022-12-12T09:26:19.010Z,30.80
2022-12-12T09:28:47.597Z,23.13
2022-12-12T09:31:15.911Z,27.53
2022-12-12T09:33:44.170Z,23.90
2022-12-12T09:36:13.874Z,20.47
2022-12-12T09:38:42.723Z,25.93
2022-12-12T09:41:18.379Z,25.67
2022-12-12T09:43:52.785Z,25.93
2022-12-12T09:46:35.963Z,26.90
2022-12-12T09:49:16.427Z,27.40
2022-12-12T09:51:47.556Z,24.97
2022-12-12T09:54:18.135Z,28.57
2022-12-12T09:57:00.191Z,26.13
2022-12-12T09:59:36.639Z,28.07
2022-12-12T10:02:23.023Z,25.17
2022-12-12T10:04:59.478Z,25.23
2022-12-12T10:07:33.924Z,24.20
2022-12-12T10:10:07.543Z,24.50
2022-12-12T10:12:38.122Z,25.97
2022-12-12T10:15:09.632Z,22.77
2022-12-12T10:17:42.302Z,20.17
2022-12-12T10:20:17.593Z,29.20
2022-12-12T10:22:50.524Z,26.83
2022-12-12T10:25:23.780Z,28.03
2022-12-12T10:27:56.428Z,25.03
2022-12-12T10:30:25.047Z,24.53
2022-12-12T10:33:07.820Z,26.20
2022-12-12T10:35:44.481Z,23.57
2022-12-12T10:38:25.290Z,29.17
2022-12-12T10:41:00.728Z,26.73
2022-12-12T10:43:35.395Z,26.77
2022-12-12T10:46:21.551Z,25.30
2022-12-12T10:48:50.443Z,24.63
2022-12-12T10:51:24.513Z,19.23
2022-12-12T10:53:53.425Z,21.47
2022-12-12T10:56:23.555Z,25.27
2022-12-12T10:58:57.840Z,21.23
2022-12-12T11:02:00.586Z,18.77
2022-12-12T11:04:17.704Z,24.43
2022-12-12T11:06:49.149Z,20.80
2022-12-12T11:09:22.716Z,20.47
2022-12-12T11:12:02.875Z,23.67
2022-12-12T11:14:38.354Z,17.70
2022-12-12T11:17:21.988Z,21.93
2022-12-12T11:19:50.416Z,27.47
2022-12-12T11:22:18.684Z,25.67
2022-12-12T11:24:49.260Z,19.00
2022-12-12T11:27:23.058Z,15.57
2022-12-12T11:29:55.816Z,22.40
2022-12-12T11:32:27.337Z,19.20
2022-12-12T11:34:58.228Z,21.43
2022-12-12T11:37:29.502Z,21.77
2022-12-12T11:39:58.800Z,24.03
2022-12-12T11:42:30.109Z,23.57
2022-12-12T11:45:02.615Z,21.93
2022-12-12T11:47:38.586Z,25.03
2022-12-12T11:50:19.434Z,23.70
2022-12-12T11:52:49.295Z,21.53
2022-12-12T11:55:20.011Z,20.90
2022-12-12T11:58:04.576Z,22.37
2022-12-12T12:00:45.204Z,21.50
2022-12-12T12:03:26.577Z,18.87
2022-12-12T12:06:24.221Z,24.60
2022-12-12T12:09:07.830Z,15.97
2022-12-12T12:11:46.235Z,24.07
2022-12-12T12:14:27.878Z,18.47
2022-12-12T12:17:03.306Z,23.63
2022-12-12T12:19:40.919Z,19.37
2022-12-12T12:22:23.188Z,21.33
2022-12-12T12:25:14.122Z,18.53
2022-12-12T12:27:52.592Z,18.53
2022-12-12T12:30:23.088Z,20.40
2022-12-12T12:33:18.794Z,21.10
2022-12-12T12:35:57.650Z,49.80
2022-12-12T12:38:35.007Z,25.47
2022-12-12T12:41:18.499Z,18.83
2022-12-12T12:43:59.281Z,19.97
2022-12-12T12:46:38.467Z,20.47
2022-12-12T12:49:16.351Z,19.90
2022-12-12T12:51:50.662Z,23.43
2022-12-12T12:54:24.239Z,19.57
2022-12-12T12:56:58.241Z,22.47
2022-12-12T12:59:31.010Z,18.77
2022-12-12T13:02:04.795Z,18.13
2022-12-12T13:04:43.093Z,15.60
2022-12-12T13:07:17.831Z,17.70
2022-12-12T13:09:51.543Z,18.77
2022-12-12T13:12:31.553Z,19.07
2022-12-12T13:15:03.611Z,22.47
2022-12-12T13:17:47.895Z,18.33
2022-12-12T13:20:20.589Z,55.23
2022-12-12T13:23:16.381Z,19.97
2022-12-12T13:25:52.065Z,17.23
2022-12-12T13:28:24.502Z,32.33
2022-12-12T13:31:13.251Z,21.90
2022-12-12T13:33:46.907Z,20.10
2022-12-12T13:36:27.677Z,19.27
2022-12-12T13:39:00.655Z,20.23
2022-12-12T13:41:29.012Z,20.37
2022-12-12T13:43:59.486Z,19.97
2022-12-12T13:46:41.697Z,22.60
2022-12-12T13:49:24.214Z,22.83
2022-12-12T13:52:13.834Z,23.60
2022-12-12T13:54:47.418Z,17.77
2022-12-12T13:57:23.874Z,14.50
2022-12-12T14:00:28.835Z,15.07
2022-12-12T14:03:03.585Z,18.00
2022-12-12T14:05:39.685Z,15.40
2022-12-12T14:08:26.757Z,19.37
2022-12-12T14:10:59.322Z,36.97
2022-12-12T14:13:42.935Z,18.77
2022-12-12T14:16:22.420Z,17.20
2022-12-12T14:19:01.941Z,15.07
2022-12-12T14:21:47.676Z,17.43
2022-12-12T14:24:54.371Z,24.60
2022-12-12T14:27:56.153Z,44.03
2022-12-12T14:30:26.469Z,26.43
2022-12-12T14:33:06.925Z,26.57
2022-12-12T14:35:43.525Z,22.40
2022-12-12T14:38:27.749Z,24.10
2022-12-12T14:41:01.558Z,22.40
2022-12-12T14:43:31.979Z,14.70
2022-12-12T14:46:02.191Z,22.13
2022-12-12T14:48:31.527Z,31.43
2022-12-12T14:51:07.766Z,22.23
2022-12-12T14:53:44.941Z,41.30
2022-12-12T14:56:17.473Z,34.37
2022-12-12T14:58:50.652Z,26.20
2022-12-12T15:01:28.426Z,23.37
2022-12-12T15:03:58.258Z,22.37
2022-12-12T15:06:34.446Z,20.70
2022-12-12T15:09:16.227Z,23.47
2022-12-12T15:11:46.939Z,24.67
2022-12-12T15:14:24.008Z,28.43
2022-12-12T15:16:56.127Z,26.17
2022-12-12T15:19:28.777Z,24.27
2022-12-12T15:21:58.155Z,27.03
2022-12-12T15:24:29.049Z,26.53
2022-12-12T15:27:00.528Z,23.00
2022-12-12T15:29:32.108Z,22.00
2022-12-12T15:32:03.976Z,22.50
2022-12-12T15:34:40.798Z,22.40
2022-12-12T15:37:28.004Z,24.17
2022-12-12T15:40:13.461Z,15.97
2022-12-12T15:42:44.609Z,23.03
2022-12-12T15:45:19.294Z,23.40
2022-12-12T15:47:47.853Z,26.80
2022-12-12T15:50:19.795Z,24.03
2022-12-12T15:52:58.867Z,27.43
2022-12-12T15:55:27.255Z,27.53
2022-12-12T15:57:57.012Z,24.37
2022-12-12T16:00:31.898Z,24.90
2022-12-12T16:03:23.734Z,23.20
2022-12-12T16:06:04.398Z,22.20
2022-12-12T16:08:40.139Z,20.97
2022-12-12T16:11:49.427Z,25.27
2022-12-12T16:14:40.058Z,24.83
2022-12-12T16:17:13.364Z,24.13
2022-12-12T16:19:47.910Z,25.63
2022-12-12T16:22:33.641Z,27.27
2022-12-12T16:25:14.309Z,25.10
2022-12-12T16:27:42.623Z,30.37
2022-12-12T16:30:14.587Z,34.33
2022-12-12T16:32:43.598Z,26.57
2022-12-12T16:35:15.653Z,25.50
2022-12-12T16:37:43.924Z,28.33
2022-12-12T16:40:15.531Z,28.27
2022-12-12T16:42:45.845Z,32.40
2022-12-12T16:45:15.535Z,27.10
2022-12-12T16:47:43.859Z,27.67
2022-12-12T16:50:14.683Z,37.97
2022-12-12T16:52:43.138Z,35.83
2022-12-12T16:55:16.581Z,35.83
2022-12-12T16:57:47.122Z,26.33
2022-12-12T17:00:17.937Z,26.00
2022-12-12T17:02:46.415Z,27.53
2022-12-12T17:05:20.580Z,25.23
2022-12-12T17:07:48.989Z,25.43
2022-12-12T17:10:17.835Z,26.53
2022-12-12T17:12:46.401Z,31.90
2022-12-12T17:15:18.820Z,27.77
2022-12-12T17:17:47.067Z,30.83
2022-12-12T17:20:15.953Z,22.40
2022-12-12T17:22:44.982Z,24.30
2022-12-12T17:25:13.481Z,29.67
2022-12-12T17:27:42.621Z,25.87
2022-12-12T17:30:13.503Z,28.97
2022-12-12T17:32:43.799Z,27.80
2022-12-12T17:35:12.097Z,24.63
2022-12-12T17:37:40.317Z,22.80
2022-12-12T17:40:11.178Z,29.80
2022-12-12T17:42:40.081Z,56.43
2022-12-12T17:45:10.238Z,58.70
2022-12-12T17:47:38.490Z,82.43
2022-12-12T17:50:10.207Z,78.73
2022-12-12T17:52:38.552Z,38.90
2022-12-12T17:55:53.078Z,65.20
2022-12-12T17:57:56.123Z,50.80
2022-12-12T18:00:25.775Z,50.43
2022-12-12T18:02:53.998Z,42.60
2022-12-12T18:05:23.586Z,43.37
2022-12-12T18:07:51.914Z,30.00
2022-12-12T18:10:20.215Z,31.97
2022-12-12T18:12:51.831Z,34.20
2022-12-12T18:15:20.526Z,39.13
2022-12-12T18:17:48.880Z,36.13
2022-12-12T18:20:17.603Z,34.63
2022-12-12T18:22:47.355Z,35.27
2022-12-12T18:25:15.625Z,46.23
2022-12-12T18:27:43.893Z,48.53
2022-12-12T18:30:13.508Z,45.77
2022-12-12T18:32:42.002Z,36.63
2022-12-12T18:35:10.812Z,42.57
2022-12-12T18:37:39.298Z,36.97
2022-12-12T18:40:10.100Z,42.10
2022-12-12T18:42:38.418Z,43.03
2022-12-12T18:45:09.416Z,47.50
2022-12-12T18:47:37.841Z,45.90
2022-12-12T18:50:07.699Z,28.47
2022-12-12T18:52:36.014Z,34.70
2022-12-12T18:55:04.543Z,45.30
2022-12-12T18:57:35.459Z,42.47
2022-12-12T19:00:07.032Z,49.33
2022-12-12T19:02:38.471Z,31.97
2022-12-12T19:05:13.271Z,34.73
2022-12-12T19:07:41.577Z,28.20
2022-12-12T19:10:10.251Z,38.10
2022-12-12T19:12:39.871Z,37.47
2022-12-12T19:15:17.626Z,33.33
2022-12-12T19:17:46.214Z,31.53
2022-12-12T19:20:14.701Z,27.17
2022-12-12T19:22:45.972Z,36.07
2022-12-12T19:25:15.325Z,31.53
2022-12-12T19:27:44.987Z,31.20
2022-12-12T19:30:15.116Z,30.20
2022-12-12T19:32:43.833Z,32.00
2022-12-12T19:35:12.308Z,34.60
2022-12-12T19:37:40.645Z,35.17
2022-12-12T19:40:10.776Z,25.87
2022-12-12T19:42:39.362Z,35.40
2022-12-12T19:45:10.874Z,36.13
2022-12-12T19:47:39.246Z,26.57
2022-12-12T19:50:08.420Z,30.37
2022-12-12T19:52:36.653Z,47.30
2022-12-12T19:55:06.734Z,46.60
2022-12-12T19:57:35.445Z,44.20
2022-12-12T20:00:03.979Z,44.20
2022-12-12T20:02:39.176Z,42.13
2022-12-12T20:05:08.239Z,36.10
2022-12-12T20:07:36.543Z,32.03
2022-12-12T20:10:07.228Z,31.60
2022-12-12T20:12:35.772Z,27.37
2022-12-12T20:15:05.885Z,34.30
2022-12-12T20:17:34.873Z,29.87
2022-12-12T20:20:06.414Z,27.27
2022-12-12T20:22:37.684Z,34.57
2022-12-12T20:25:07.792Z,29.07
2022-12-12T20:27:36.253Z,39.20
2022-12-12T20:30:06.628Z,32.77
2022-12-12T20:32:35.077Z,27.73
2022-12-12T20:35:06.110Z,31.63
2022-12-12T20:37:34.714Z,29.70
2022-12-12T20:40:04.112Z,33.53
2022-12-12T20:42:33.224Z,29.80
2022-12-12T20:45:03.199Z,32.50
2022-12-12T20:47:33.526Z,31.83
2022-12-12T20:50:01.889Z,29.93
2022-12-12T20:52:31.861Z,28.27
2022-12-12T20:55:00.222Z,29.93
2022-12-12T20:57:28.526Z,29.70
2022-12-12T20:59:56.726Z,26.37
2022-12-12T21:02:28.762Z,30.23
2022-12-12T21:04:58.489Z,27.53
2022-12-12T21:07:26.735Z,32.17
2022-12-12T21:09:56.978Z,26.00
2022-12-12T21:12:25.279Z,31.43
2022-12-12T21:14:56.081Z,32.83
2022-12-12T21:17:27.908Z,31.57
2022-12-12T21:19:56.244Z,32.77
2022-12-12T21:22:24.536Z,26.47
2022-12-12T21:24:52.860Z,29.07
2022-12-12T21:27:22.503Z,28.90
2022-12-12T21:29:50.730Z,32.93
2022-12-12T21:32:18.948Z,32.17
2022-12-12T21:34:47.643Z,32.97
2022-12-12T21:37:16.652Z,33.40
2022-12-12T21:39:46.454Z,28.57
2022-12-12T21:42:14.781Z,29.97
2022-12-12T21:44:45.980Z,31.57
2022-12-12T21:47:14.762Z,27.20
2022-12-12T21:49:43.011Z,30.97
2022-12-12T21:52:12.160Z,28.07
2022-12-12T21:54:40.689Z,29.13
2022-12-12T21:57:08.917Z,29.33
2022-12-12T21:59:38.654Z,30.83
2022-12-12T22:02:08.812Z,25.83
2022-12-12T22:04:37.235Z,29.47
2022-12-12T22:07:12.287Z,26.03
2022-12-12T22:09:41.104Z,28.17
2022-12-12T22:12:09.585Z,34.30
2022-12-12T22:14:37.916Z,32.37
2022-12-12T22:17:08.410Z,34.17
2022-12-12T22:19:36.612Z,31.80
2022-12-12T22:22:05.375Z,27.83
2022-12-12T22:24:33.886Z,29.77
2022-12-12T22:27:02.421Z,27.77
2022-12-12T22:29:30.628Z,29.80
2022-12-12T22:31:58.846Z,29.43
2022-12-12T22:34:30.062Z,31.23
2022-12-12T22:36:58.613Z,35.17
2022-12-12T22:39:39.084Z,30.83
2022-12-12T22:42:07.349Z,29.10
2022-12-12T22:44:35.623Z,32.97
2022-12-12T22:47:04.057Z,32.60
2022-12-12T22:49:34.529Z,27.10
2022-12-12T22:52:02.833Z,31.70
2022-12-12T22:54:31.015Z,34.63
2022-12-12T22:56:59.246Z,32.93
2022-12-12T22:59:27.932Z,32.20
2022-12-12T23:01:56.150Z,31.80
2022-12-12T23:04:24.460Z,37.57
2022-12-12T23:06:54.156Z,33.53
2022-12-12T23:09:26.220Z,33.17
2022-12-12T23:11:55.171Z,30.37
2022-12-12T23:14:28.388Z,32.33
2022-12-12T23:16:56.852Z,32.23
2022-12-12T23:19:28.819Z,30.47
2022-12-12T23:21:58.380Z,36.53
2022-12-12T23:24:26.887Z,29.93
2022-12-12T23:26:55.150Z,30.20
2022-12-12T23:29:23.372Z,27.87
2022-12-12T23:31:52.213Z,32.63
2022-12-12T23:34:23.051Z,35.70
2022-12-12T23:36:51.963Z,31.53
2022-12-12T23:39:22.072Z,35.40
2022-12-12T23:41:50.589Z,29.93
2022-12-12T23:44:20.516Z,29.77
2022-12-12T23:46:49.166Z,29.60
2022-12-12T23:49:19.430Z,33.57
2022-12-12T23:51:49.475Z,29.30
2022-12-12T23:54:19.532Z,34.20
2022-12-12T23:56:49.929Z,33.07
2022-12-12T23:59:19.651Z,29.97
